Trescott Township, Maine
Current Conditions -  °F | °C
As of 12:35 PM on Thursday 23 Oct 2014 (Local Time) from KBHB Reporting Station
Overcast Overcast  
Wind Chill: 52°   Ceiling: 800
Heat Index: 52°   Visibility: 2.5mi
Dew Point: 52°   Wind: 15mph
Humidity: 100%   Direction: 50°NE
Pressure: 29.83"   Gusts: 32mph
Location:  44.7971°N, 67.1163°W
Report Text: KBHB 231635Z AUTO 05013G28KT 2 1/2SM OVC008 11/11 A2983 RMK AO1 P0001
Loading
Personal Weather Stations






























Interactive Weather Map
Tropical Storm Tracking
New forecast layout! Learn more

10-Day Weather Forecast

Advertisements
Track Severe Weather on mobile